Hillsboro, Kansas
Current Conditions -  °F | °C
As of 6:55 AM on Thursday 23 Oct 2014 (Local Time) from KEWK Reporting Station
Overcast Overcast  
Wind Chill: 61°   Ceiling: 2400
Heat Index: 61°   Visibility: 10mi
Dew Point: 54°   Wind: 9mph
Humidity: 77%   Direction: 200°SSW
Pressure: 30.1"   Gusts: NA
Location:  38.35°N, 97.2°W
Report Text: KEWK 231155Z AUTO 20008KT 10SM OVC024 16/12 A3010 RMK AO1 70004 10160 20160 52003
Loading
Personal Weather Stations






























Interactive Weather Map
Tropical Storm Tracking
New forecast layout! Learn more

10-Day Weather Forecast

Advertisements
Track Severe Weather on mobile